createdAt,value
2022-10-25T00:00:08.480Z,71
2022-10-25T00:01:13.121Z,78
2022-10-25T00:02:27.960Z,74
2022-10-25T00:03:32.109Z,72
2022-10-25T00:04:36.606Z,76
2022-10-25T00:05:40.748Z,67
2022-10-25T00:06:45.408Z,72
2022-10-25T00:07:49.953Z,68
2022-10-25T00:08:54.605Z,63
2022-10-25T00:09:59.147Z,74
2022-10-25T00:11:03.314Z,71
2022-10-25T00:12:07.876Z,76
2022-10-25T00:13:12.573Z,75
2022-10-25T00:14:17.005Z,71
2022-10-25T00:15:21.060Z,77
2022-10-25T00:16:25.273Z,76
2022-10-25T00:17:29.850Z,72
2022-10-25T00:18:34.464Z,71
2022-10-25T00:19:39.131Z,68
2022-10-25T00:20:43.567Z,69
2022-10-25T00:21:47.804Z,73
2022-10-25T00:22:52.361Z,79
2022-10-25T00:23:56.828Z,78
2022-10-25T00:25:01.068Z,82
2022-10-25T00:26:05.549Z,81
2022-10-25T00:27:09.736Z,82
2022-10-25T00:28:13.821Z,76
2022-10-25T00:29:18.496Z,78
2022-10-25T00:30:22.938Z,75
2022-10-25T00:31:27.236Z,81
2022-10-25T00:32:31.622Z,81
2022-10-25T00:33:35.741Z,83
2022-10-25T00:34:39.883Z,82
2022-10-25T00:35:44.001Z,79
2022-10-25T00:36:48.114Z,80
2022-10-25T00:37:52.183Z,79
2022-10-25T00:38:56.802Z,81
2022-10-25T00:40:00.925Z,78
2022-10-25T00:41:05.596Z,75
2022-10-25T00:42:10.188Z,74
2022-10-25T00:43:14.789Z,77
2022-10-25T00:44:29.460Z,73
2022-10-25T00:45:36.596Z,62
2022-10-25T00:46:40.692Z,67
2022-10-25T00:47:45.098Z,74
2022-10-25T00:48:49.429Z,69
2022-10-25T00:50:04.238Z,75
2022-10-25T00:51:16.497Z,67
2022-10-25T00:52:21.071Z,69
2022-10-25T00:53:25.704Z,72
2022-10-25T00:54:30.203Z,70
2022-10-25T00:55:37.471Z,61
2022-10-25T00:56:42.044Z,63
2022-10-25T00:57:46.908Z,64
2022-10-25T00:58:51.182Z,72
2022-10-25T00:59:55.816Z,68
2022-10-25T01:01:00.492Z,59
2022-10-25T01:02:05.130Z,61
2022-10-25T01:03:09.597Z,72
2022-10-25T01:04:14.084Z,74
2022-10-25T01:05:18.248Z,66
2022-10-25T01:06:22.314Z,73
2022-10-25T01:07:29.511Z,66
2022-10-25T01:08:34.029Z,64
2022-10-25T01:09:38.168Z,69
2022-10-25T01:10:42.757Z,67
2022-10-25T01:11:46.893Z,64
2022-10-25T01:12:52.190Z,63
2022-10-25T01:13:56.069Z,63
2022-10-25T01:15:00.097Z,61
2022-10-25T01:16:04.265Z,58
2022-10-25T01:17:13.916Z,58
2022-10-25T01:18:26.617Z,61
2022-10-25T01:19:38.834Z,53
2022-10-25T01:20:53.732Z,69
2022-10-25T01:22:03.472Z,65
2022-10-25T01:23:08.138Z,57
2022-10-25T01:24:20.761Z,64
2022-10-25T01:25:30.408Z,66
2022-10-25T01:26:42.560Z,65
2022-10-25T01:27:52.272Z,71
2022-10-25T01:29:01.416Z,67
2022-10-25T01:30:13.693Z,62
2022-10-25T01:31:24.000Z,60
2022-10-25T01:32:28.525Z,58
2022-10-25T01:33:43.212Z,60
2022-10-25T01:34:55.592Z,54
2022-10-25T01:36:10.370Z,58
2022-10-25T01:37:14.930Z,57
2022-10-25T01:38:19.471Z,53
2022-10-25T01:39:34.245Z,54
2022-10-25T01:40:46.425Z,52
2022-10-25T01:41:50.572Z,56
2022-10-25T01:43:05.464Z,47
2022-10-25T01:44:09.965Z,54
2022-10-25T01:45:22.265Z,44
2022-10-25T01:46:29.472Z,41
2022-10-25T01:47:33.992Z,49
2022-10-25T01:48:38.644Z,47
2022-10-25T01:49:48.284Z,50
2022-10-25T01:51:00.588Z,47
2022-10-25T01:52:10.149Z,44
2022-10-25T01:53:14.376Z,45
2022-10-25T01:54:18.980Z,45
2022-10-25T01:55:23.532Z,44
2022-10-25T01:56:35.721Z,50
2022-10-25T01:57:42.869Z,43
2022-10-25T01:58:50.188Z,41
2022-10-25T02:00:04.826Z,45
2022-10-25T02:01:14.732Z,40
2022-10-25T02:02:24.219Z,42
2022-10-25T02:03:33.920Z,37
2022-10-25T02:04:41.124Z,42
2022-10-25T02:05:50.665Z,40
2022-10-25T02:07:05.551Z,43
2022-10-25T02:08:12.705Z,39
2022-10-25T02:09:27.521Z,37
2022-10-25T02:10:34.649Z,33
2022-10-25T02:11:41.780Z,34
2022-10-25T02:12:46.053Z,44
2022-10-25T02:13:50.527Z,40
2022-10-25T02:15:00.127Z,42
2022-10-25T02:16:07.496Z,30
2022-10-25T02:17:11.980Z,43
2022-10-25T02:18:16.616Z,34
2022-10-25T02:19:21.184Z,33
2022-10-25T02:20:25.781Z,33
2022-10-25T02:21:30.464Z,35
2022-10-25T02:22:34.988Z,41
2022-10-25T02:23:39.016Z,39
2022-10-25T02:24:43.225Z,39
2022-10-25T02:25:47.732Z,34
2022-10-25T02:26:51.718Z,37
2022-10-25T02:27:55.897Z,39
2022-10-25T02:28:59.949Z,38
2022-10-25T02:30:04.049Z,36
2022-10-25T02:31:08.760Z,38
2022-10-25T02:32:13.312Z,50
2022-10-25T02:33:17.379Z,45
2022-10-25T02:34:21.455Z,51
2022-10-25T02:35:25.697Z,56
2022-10-25T02:36:30.192Z,50
2022-10-25T02:37:34.213Z,55
2022-10-25T02:38:38.440Z,53
2022-10-25T02:39:43.016Z,50
2022-10-25T02:40:47.638Z,44
2022-10-25T02:41:52.284Z,45
2022-10-25T02:42:56.896Z,46
2022-10-25T02:44:01.291Z,44
2022-10-25T02:45:05.408Z,51
2022-10-25T02:46:10.055Z,44
2022-10-25T02:47:14.700Z,45
2022-10-25T02:48:19.244Z,40
2022-10-25T02:49:23.336Z,41
2022-10-25T02:50:27.952Z,48
2022-10-25T02:51:32.568Z,36
2022-10-25T02:52:37.336Z,41
2022-10-25T02:53:41.736Z,45
2022-10-25T02:54:46.380Z,46
2022-10-25T02:55:51.216Z,41
2022-10-25T02:57:00.676Z,33
2022-10-25T02:58:05.344Z,43
2022-10-25T02:59:09.945Z,36
2022-10-25T03:00:14.666Z,42
2022-10-25T03:01:19.252Z,39
2022-10-25T03:02:23.937Z,36
2022-10-25T03:03:28.360Z,31
2022-10-25T03:04:32.897Z,32
2022-10-25T03:05:37.437Z,31
2022-10-25T03:06:41.605Z,41
2022-10-25T03:07:46.163Z,34
2022-10-25T03:08:50.728Z,30
2022-10-25T03:09:55.247Z,36
2022-10-25T03:10:59.494Z,37
2022-10-25T03:12:04.043Z,32
2022-10-25T03:13:08.714Z,38
2022-10-25T03:14:13.277Z,38
2022-10-25T03:15:17.800Z,42
2022-10-25T03:16:22.480Z,42
2022-10-25T03:17:26.984Z,40
2022-10-25T03:18:31.079Z,41
2022-10-25T03:19:35.754Z,45
2022-10-25T03:20:40.405Z,46
2022-10-25T03:21:44.946Z,42
2022-10-25T03:22:49.574Z,47
2022-10-25T03:23:54.051Z,42
2022-10-25T03:24:58.395Z,43
2022-10-25T03:26:02.893Z,40
2022-10-25T03:27:07.398Z,42
2022-10-25T03:28:11.954Z,40
2022-10-25T03:29:16.042Z,40
2022-10-25T03:30:20.723Z,33
2022-10-25T03:31:25.450Z,36
2022-10-25T03:32:29.822Z,36
2022-10-25T03:33:33.935Z,34
2022-10-25T03:34:38.534Z,41
2022-10-25T03:35:43.184Z,43
2022-10-25T03:36:47.622Z,43
2022-10-25T03:37:51.742Z,42
2022-10-25T03:38:56.351Z,49
2022-10-25T03:40:00.926Z,41
2022-10-25T03:41:05.626Z,44
2022-10-25T03:42:10.158Z,43
2022-10-25T03:43:14.813Z,46
2022-10-25T03:44:19.364Z,38
2022-10-25T03:45:23.914Z,40
2022-10-25T03:46:28.598Z,46
2022-10-25T03:47:33.258Z,43
2022-10-25T03:48:37.598Z,48
2022-10-25T03:49:41.686Z,48
2022-10-25T03:50:45.898Z,49
2022-10-25T03:51:51.179Z,47
2022-10-25T03:52:54.404Z,53
2022-10-25T03:53:58.586Z,50
2022-10-25T03:55:02.682Z,45
2022-10-25T03:56:07.419Z,49
2022-10-25T03:57:12.001Z,54
2022-10-25T03:58:16.710Z,49
2022-10-25T03:59:21.396Z,48
2022-10-25T04:00:25.770Z,46
2022-10-25T04:01:30.514Z,54
2022-10-25T04:02:34.970Z,49
2022-10-25T04:03:39.390Z,40
2022-10-25T04:04:44.098Z,40
2022-10-25T04:05:48.674Z,49
2022-10-25T04:06:53.170Z,49
2022-10-25T04:07:57.275Z,46
2022-10-25T04:09:01.270Z,43
2022-10-25T04:10:05.590Z,48
2022-10-25T04:11:10.362Z,42
2022-10-25T04:12:14.814Z,48
2022-10-25T04:13:19.357Z,51
2022-10-25T04:14:23.470Z,43
2022-10-25T04:15:28.059Z,43
2022-10-25T04:16:32.714Z,47
2022-10-25T04:17:37.202Z,44
2022-10-25T04:18:41.323Z,39
2022-10-25T04:19:45.968Z,38
2022-10-25T04:20:50.446Z,38
2022-10-25T04:21:54.742Z,37
2022-10-25T04:22:59.183Z,37
2022-10-25T04:24:04.252Z,36
2022-10-25T04:25:07.531Z,34
2022-10-25T04:26:11.986Z,29
2022-10-25T04:27:16.555Z,38
2022-10-25T04:28:20.835Z,37
2022-10-25T04:29:25.463Z,39
2022-10-25T04:30:29.786Z,41
2022-10-25T04:31:33.898Z,43
2022-10-25T04:32:38.096Z,38
2022-10-25T04:33:44.019Z,42
2022-10-25T04:34:49.706Z,43
2022-10-25T04:35:54.194Z,29
2022-10-25T04:36:58.263Z,33
2022-10-25T04:38:02.439Z,39
2022-10-25T04:39:06.614Z,40
2022-10-25T04:40:11.178Z,36
2022-10-25T04:41:15.766Z,40
2022-10-25T04:42:19.910Z,42
2022-10-25T04:43:24.739Z,40
2022-10-25T04:44:29.178Z,42
2022-10-25T04:45:33.704Z,42
2022-10-25T04:46:38.223Z,39
2022-10-25T04:47:42.354Z,37
2022-10-25T04:48:46.797Z,38
2022-10-25T04:49:51.058Z,36
2022-10-25T04:50:55.933Z,34
2022-10-25T04:52:00.150Z,40
2022-10-25T04:53:04.446Z,36
2022-10-25T04:54:08.865Z,37
2022-10-25T04:55:13.049Z,40
2022-10-25T04:56:17.860Z,36
2022-10-25T04:57:22.348Z,37
2022-10-25T04:58:28.764Z,25
2022-10-25T04:59:31.618Z,35
2022-10-25T05:00:36.115Z,29
2022-10-25T05:01:40.820Z,31
2022-10-25T05:02:46.025Z,34
2022-10-25T05:03:49.842Z,35
2022-10-25T05:04:54.610Z,35
2022-10-25T05:05:58.882Z,36
2022-10-25T05:07:10.705Z,37
2022-10-25T05:08:14.895Z,31
2022-10-25T05:09:19.338Z,32
2022-10-25T05:10:23.434Z,30
2022-10-25T05:11:27.835Z,36
2022-10-25T05:12:32.250Z,33
2022-10-25T05:13:36.994Z,38
2022-10-25T05:15:23.838Z,36
2022-10-25T05:16:28.202Z,39
2022-10-25T05:17:32.250Z,40
2022-10-25T05:18:36.294Z,37
2022-10-25T05:19:40.498Z,37
2022-10-25T05:20:49.210Z,36
2022-10-25T05:21:56.414Z,41
2022-10-25T05:23:00.978Z,43
2022-10-25T05:24:05.486Z,43
2022-10-25T05:25:09.838Z,48
2022-10-25T05:28:06.934Z,48
2022-10-25T05:30:13.426Z,48
2022-10-25T05:32:19.999Z,48
2022-10-25T05:33:55.586Z,32
2022-10-25T05:35:00.110Z,39
2022-10-25T05:36:04.974Z,37
2022-10-25T05:37:09.458Z,38
2022-10-25T05:38:13.970Z,32
2022-10-25T05:39:45.211Z,37
2022-10-25T05:40:50.832Z,32
2022-10-25T05:41:56.033Z,39
2022-10-25T05:43:01.138Z,32
2022-10-25T05:44:05.509Z,41
2022-10-25T05:45:11.434Z,39
2022-10-25T05:46:16.362Z,43
2022-10-25T05:47:24.263Z,33
2022-10-25T05:48:28.491Z,40
2022-10-25T05:49:33.719Z,42
2022-10-25T05:51:08.344Z,39
2022-10-25T05:52:12.846Z,37
2022-10-25T05:53:17.446Z,43
2022-10-25T05:54:21.965Z,39
2022-10-25T05:55:26.650Z,42
2022-10-25T06:04:11.693Z,42
2022-10-25T06:06:18.146Z,42
2022-10-25T06:11:25.210Z,41
2022-10-25T06:12:29.334Z,40
2022-10-25T06:13:33.518Z,38
2022-10-25T06:14:37.919Z,37
2022-10-25T06:15:42.210Z,41
2022-10-25T06:20:02.490Z,36
2022-10-25T06:21:07.330Z,37
2022-10-25T06:22:11.779Z,38
2022-10-25T06:24:18.074Z,38
2022-10-25T06:26:35.285Z,38
2022-10-25T06:28:42.133Z,38
2022-10-25T06:40:01.352Z,38
2022-10-25T06:41:06.170Z,35
2022-10-25T06:42:52.578Z,30
2022-10-25T06:43:57.133Z,39
2022-10-25T07:19:59.400Z,28
2022-10-25T07:21:03.309Z,35
2022-10-25T07:23:14.689Z,35
2022-10-25T07:25:31.543Z,35
2022-10-25T07:27:38.149Z,35
2022-10-25T07:29:45.115Z,35
2022-10-25T07:42:28.356Z,42
2022-10-25T07:44:34.948Z,42
2022-10-25T07:46:41.533Z,42
2022-10-25T07:49:33.222Z,50
2022-10-25T07:50:37.554Z,49
2022-10-25T07:51:42.010Z,50
2022-10-25T07:52:46.530Z,51
2022-10-25T07:54:00.229Z,46
2022-10-25T07:55:04.562Z,36
2022-10-25T07:56:09.086Z,49
2022-10-25T07:57:13.822Z,48
2022-10-25T07:58:18.367Z,42
2022-10-25T07:59:34.074Z,41
2022-10-25T08:00:39.118Z,37
2022-10-25T08:01:43.435Z,38
2022-10-25T08:02:47.956Z,35
2022-10-25T08:03:52.387Z,38
2022-10-25T08:05:18.867Z,32
2022-10-25T08:06:23.005Z,28
2022-10-25T08:07:28.051Z,25
2022-10-25T08:08:32.770Z,29
2022-10-25T08:09:38.488Z,30
2022-10-25T08:10:54.217Z,27
2022-10-25T08:11:58.541Z,25
2022-10-25T08:13:02.782Z,31
2022-10-25T08:14:07.483Z,31
2022-10-25T08:15:12.002Z,31
2022-10-25T08:16:19.268Z,45
2022-10-25T08:17:23.841Z,42
2022-10-25T08:18:29.011Z,46
2022-10-25T08:19:33.489Z,41
2022-10-25T08:21:00.389Z,38
2022-10-25T08:21:47.492Z,48
2022-10-25T08:22:51.680Z,41
2022-10-25T08:23:58.885Z,30
2022-10-25T08:25:03.675Z,36
2022-10-25T08:26:08.164Z,36
2022-10-25T08:27:22.346Z,33
2022-10-25T08:28:27.017Z,34
2022-10-25T08:29:34.147Z,33
2022-10-25T08:30:38.813Z,30
2022-10-25T08:31:42.781Z,38
2022-10-25T08:33:11.549Z,39
2022-10-25T08:34:13.327Z,32
2022-10-25T08:35:17.381Z,35
2022-10-25T08:36:22.353Z,46
2022-10-25T08:37:26.809Z,43
2022-10-25T08:38:54.737Z,35
2022-10-25T08:39:59.375Z,33
2022-10-25T08:41:04.045Z,38
2022-10-25T08:42:13.604Z,43
2022-10-25T08:43:20.394Z,42
2022-10-25T08:44:37.310Z,42
2022-10-25T08:45:47.167Z,41
2022-10-25T08:47:01.557Z,37
2022-10-25T08:48:14.656Z,38
2022-10-25T08:49:18.684Z,36
2022-10-25T08:50:23.234Z,48
2022-10-25T08:52:37.772Z,48
2022-10-25T08:53:43.855Z,41
2022-10-25T08:54:48.290Z,41
2022-10-25T08:56:15.958Z,42
2022-10-25T08:57:16.000Z,43
2022-10-25T08:58:19.953Z,38
2022-10-25T08:59:34.681Z,41
2022-10-25T09:00:39.246Z,45
2022-10-25T09:01:45.435Z,48
2022-10-25T09:02:49.373Z,46
2022-10-25T09:03:53.565Z,44
2022-10-25T09:04:57.964Z,41
2022-10-25T09:06:02.116Z,43
2022-10-25T09:07:27.364Z,50
2022-10-25T09:08:39.368Z,46
2022-10-25T09:09:46.509Z,48
2022-10-25T09:10:50.692Z,55
2022-10-25T09:12:05.477Z,52
2022-10-25T09:13:20.142Z,50
2022-10-25T09:14:34.992Z,49
2022-10-25T09:15:49.777Z,43
2022-10-25T09:17:01.977Z,49
2022-10-25T09:18:12.161Z,45
2022-10-25T09:19:16.149Z,50
2022-10-25T09:20:30.993Z,34
2022-10-25T09:21:35.045Z,33
2022-10-25T09:22:45.261Z,26
2022-10-25T09:23:49.392Z,36
2022-10-25T09:25:02.097Z,35
2022-10-25T09:26:09.153Z,39
2022-10-25T09:27:18.498Z,30
2022-10-25T09:28:30.569Z,28
2022-10-25T09:29:45.409Z,33
2022-10-25T09:30:57.553Z,36
2022-10-25T09:32:01.669Z,25
2022-10-25T09:33:53.713Z,34
2022-10-25T09:34:58.160Z,25
2022-10-25T09:36:02.469Z,36
2022-10-25T09:37:07.012Z,32
2022-10-25T09:38:11.625Z,31
2022-10-25T09:40:10.612Z,25
2022-10-25T09:41:20.072Z,30
2022-10-25T09:42:27.444Z,25
2022-10-25T09:43:31.909Z,28
2022-10-25T09:45:43.345Z,28
2022-10-25T09:46:50.242Z,25
2022-10-25T09:48:00.004Z,34
2022-10-25T09:49:07.137Z,30
2022-10-25T09:50:11.312Z,29
2022-10-25T09:51:26.092Z,35
2022-10-25T09:52:35.640Z,27
2022-10-25T09:53:50.432Z,25
2022-10-25T09:54:54.512Z,37
2022-10-25T09:56:04.172Z,30
2022-10-25T09:57:08.204Z,25
2022-10-25T09:58:12.512Z,32
2022-10-25T09:59:22.124Z,25
2022-10-25T10:00:28.260Z,27
2022-10-25T10:02:35.142Z,27
2022-10-25T10:04:41.603Z,27
2022-10-25T10:05:50.249Z,25
2022-10-25T10:06:54.612Z,25
2022-10-25T10:07:58.868Z,25
2022-10-25T10:09:03.420Z,33
2022-10-25T10:10:08.054Z,25
2022-10-25T10:11:17.526Z,28
2022-10-25T10:12:21.704Z,25
2022-10-25T10:13:28.868Z,25
2022-10-25T10:14:43.754Z,26
2022-10-25T10:15:53.412Z,47
2022-10-25T10:17:15.836Z,39
2022-10-25T10:18:20.331Z,25
2022-10-25T10:19:29.999Z,46
2022-10-25T10:20:34.177Z,25
2022-10-25T10:21:39.309Z,31
2022-10-25T10:22:58.160Z,45
2022-10-25T10:24:02.680Z,25
2022-10-25T10:25:07.208Z,48
2022-10-25T10:26:11.416Z,27
2022-10-25T10:28:20.109Z,33
2022-10-25T10:29:24.589Z,26
2022-10-25T10:30:28.688Z,47
2022-10-25T10:31:32.785Z,58
2022-10-25T10:32:36.983Z,32
2022-10-25T10:33:45.269Z,33
2022-10-25T10:35:51.860Z,33
2022-10-25T10:37:58.455Z,33
2022-10-25T10:39:27.252Z,46
2022-10-25T10:40:31.452Z,33
2022-10-25T10:41:36.019Z,32
2022-10-25T10:42:40.095Z,53
2022-10-25T10:43:44.232Z,43
2022-10-25T10:44:59.355Z,45
2022-10-25T10:46:06.540Z,42
2022-10-25T10:47:10.887Z,49
2022-10-25T10:48:15.261Z,46
2022-10-25T10:49:19.327Z,50
2022-10-25T10:51:45.271Z,50
2022-10-25T10:52:49.291Z,37
2022-10-25T10:53:58.709Z,42
2022-10-25T10:55:13.461Z,33
2022-10-25T10:56:34.272Z,42
2022-10-25T10:57:40.296Z,32
2022-10-25T10:58:44.526Z,25
2022-10-25T10:59:51.732Z,30
2022-10-25T11:00:56.137Z,37
2022-10-25T11:02:01.546Z,36
2022-10-25T11:03:16.022Z,28
2022-10-25T11:04:30.820Z,35
2022-10-25T11:05:34.894Z,29
2022-10-25T11:06:39.496Z,51
2022-10-25T11:07:57.254Z,45
2022-10-25T11:09:01.408Z,35
2022-10-25T11:10:11.016Z,32
2022-10-25T11:11:18.331Z,29
2022-10-25T11:12:22.800Z,44
2022-10-25T11:13:31.244Z,43
2022-10-25T11:14:35.720Z,35
2022-10-25T11:15:40.284Z,36
2022-10-25T11:16:54.964Z,31
2022-10-25T11:18:04.536Z,34
2022-10-25T11:19:22.322Z,35
2022-10-25T11:21:34.141Z,35
2022-10-25T11:23:45.532Z,35
2022-10-25T11:25:11.392Z,35
2022-10-25T11:26:26.161Z,27
2022-10-25T11:27:34.324Z,25
2022-10-25T11:28:47.677Z,31
2022-10-25T11:29:59.968Z,33
2022-10-25T11:31:09.654Z,28
2022-10-25T11:32:24.624Z,42
2022-10-25T11:33:36.564Z,32
2022-10-25T11:34:51.553Z,27
2022-10-25T11:36:04.244Z,46
2022-10-25T11:37:13.977Z,33
2022-10-25T11:38:17.972Z,35
2022-10-25T11:39:32.915Z,50
2022-10-25T11:40:47.668Z,28
2022-10-25T11:42:02.180Z,32
2022-10-25T11:43:14.036Z,25
2022-10-25T11:44:18.735Z,32
2022-10-25T11:45:26.288Z,29
2022-10-25T11:47:00.429Z,25
2022-10-25T11:48:09.968Z,30
2022-10-25T11:49:24.836Z,37
2022-10-25T11:50:37.572Z,49
2022-10-25T11:51:47.312Z,28
2022-10-25T11:52:59.463Z,28
2022-10-25T11:54:11.637Z,32
2022-10-25T11:55:18.855Z,25
2022-10-25T11:56:28.519Z,27
2022-10-25T11:57:39.424Z,33
2022-10-25T11:58:46.283Z,32
2022-10-25T12:00:01.074Z,27
2022-10-25T12:01:10.844Z,41
2022-10-25T12:02:21.384Z,25
2022-10-25T12:03:35.792Z,33
2022-10-25T12:04:50.748Z,27
2022-10-25T12:06:00.232Z,28
2022-10-25T12:07:20.284Z,25
2022-10-25T12:08:32.977Z,27
2022-10-25T12:09:42.508Z,30
2022-10-25T12:10:49.642Z,36
2022-10-25T12:11:53.780Z,40
2022-10-25T12:13:03.428Z,28
2022-10-25T12:14:18.215Z,29
2022-10-25T12:15:24.900Z,43
2022-10-25T12:16:37.888Z,40
2022-10-25T12:17:42.195Z,40
2022-10-25T12:18:46.327Z,32
2022-10-25T12:19:50.899Z,26
2022-10-25T12:20:55.444Z,37
2022-10-25T12:22:00.872Z,30
2022-10-25T12:23:07.132Z,43
2022-10-25T12:24:11.949Z,57
2022-10-25T12:25:22.107Z,25
2022-10-25T12:26:31.777Z,34
2022-10-25T12:27:36.220Z,34
2022-10-25T12:28:40.380Z,37
2022-10-25T12:29:47.431Z,48
2022-10-25T12:30:54.617Z,27
2022-10-25T12:32:01.696Z,54
2022-10-25T12:33:06.291Z,58
2022-10-25T12:34:15.767Z,53
2022-10-25T12:35:20.131Z,50
2022-10-25T12:36:24.272Z,38
2022-10-25T12:37:36.550Z,46
2022-10-25T12:38:41.075Z,57
2022-10-25T12:39:45.258Z,28
2022-10-25T12:40:51.083Z,43
2022-10-25T12:41:55.619Z,25
2022-10-25T12:42:59.881Z,39
2022-10-25T12:44:07.331Z,42
2022-10-25T12:45:17.024Z,25
2022-10-25T12:46:32.007Z,32
2022-10-25T12:47:48.756Z,34
2022-10-25T12:49:00.703Z,40
2022-10-25T12:50:12.836Z,31
2022-10-25T12:51:21.999Z,54
2022-10-25T12:52:36.763Z,42
2022-10-25T12:53:40.987Z,50
2022-10-25T12:54:50.849Z,25
2022-10-25T12:56:05.335Z,48
2022-10-25T12:57:15.049Z,40
2022-10-25T12:58:24.576Z,49
2022-10-25T12:59:33.963Z,39
2022-10-25T13:00:44.003Z,29
2022-10-25T13:01:53.418Z,40
2022-10-25T13:03:06.696Z,31
2022-10-25T13:04:15.327Z,51
2022-10-25T13:05:30.112Z,33
2022-10-25T13:06:37.495Z,46
2022-10-25T13:07:43.331Z,43
2022-10-25T13:08:47.583Z,53
2022-10-25T13:09:52.191Z,36
2022-10-25T13:10:57.039Z,29
2022-10-25T13:12:01.504Z,45
2022-10-25T13:13:08.552Z,47
2022-10-25T13:14:18.348Z,39
2022-10-25T13:15:32.925Z,28
2022-10-25T13:16:42.427Z,54
2022-10-25T13:17:46.815Z,25
2022-10-25T13:19:01.448Z,47
2022-10-25T13:20:13.957Z,40
2022-10-25T13:21:24.327Z,44
2022-10-25T13:22:37.876Z,48
2022-10-25T13:23:41.343Z,38
2022-10-25T13:24:48.595Z,32
2022-10-25T13:25:53.213Z,33
2022-10-25T13:26:57.885Z,48
2022-10-25T13:28:12.488Z,49
2022-10-25T13:29:16.528Z,54
2022-10-25T13:30:31.942Z,48
2022-10-25T13:31:35.928Z,43
2022-10-25T13:32:43.304Z,43
2022-10-25T13:33:48.163Z,48
2022-10-25T13:34:52.455Z,46
2022-10-25T13:35:57.432Z,52
2022-10-25T13:37:02.019Z,43
2022-10-25T13:38:06.383Z,35
2022-10-25T13:39:10.691Z,47
2022-10-25T13:40:19.384Z,42
2022-10-25T13:41:23.567Z,36
2022-10-25T13:42:27.662Z,41
2022-10-25T13:43:37.871Z,42
2022-10-25T13:44:52.548Z,37
2022-10-25T13:46:04.791Z,37
2022-10-25T13:47:08.868Z,36
2022-10-25T13:48:23.783Z,45
2022-10-25T13:49:30.873Z,40
2022-10-25T13:50:34.959Z,37
2022-10-25T13:51:46.307Z,37
2022-10-25T13:52:50.924Z,37
2022-10-25T13:54:01.373Z,35
2022-10-25T13:55:05.703Z,30
2022-10-25T13:56:10.267Z,32
2022-10-25T13:57:22.462Z,36
2022-10-25T13:58:37.336Z,29
2022-10-25T13:59:41.435Z,30
2022-10-25T14:00:49.806Z,34
2022-10-25T14:01:53.229Z,36
2022-10-25T14:02:57.176Z,27
2022-10-25T14:04:09.355Z,34
2022-10-25T14:05:24.327Z,27
2022-10-25T14:06:33.944Z,36
2022-10-25T14:07:38.447Z,29
2022-10-25T14:08:42.691Z,36
2022-10-25T14:09:52.279Z,35
2022-10-25T14:10:56.360Z,35
2022-10-25T14:12:11.159Z,36
2022-10-25T14:13:12.700Z,33
2022-10-25T14:14:16.947Z,33
2022-10-25T14:15:38.919Z,31
2022-10-25T14:16:53.536Z,37
2022-10-25T14:18:05.907Z,42
2022-10-25T14:19:10.352Z,37
2022-10-25T14:20:20.656Z,36
2022-10-25T14:21:30.799Z,35
2022-10-25T14:22:35.008Z,29
2022-10-25T14:23:44.839Z,31
2022-10-25T14:24:49.232Z,25
2022-10-25T14:25:53.409Z,30
2022-10-25T14:26:57.711Z,32
2022-10-25T14:28:04.327Z,33
2022-10-25T14:29:13.874Z,35
2022-10-25T14:30:18.018Z,32
2022-10-25T14:31:30.316Z,33
2022-10-25T14:32:34.836Z,33
2022-10-25T14:33:41.967Z,37
2022-10-25T14:34:53.767Z,36
2022-10-25T14:35:57.711Z,34
2022-10-25T14:37:07.014Z,35
2022-10-25T14:38:11.059Z,37
2022-10-25T14:39:15.206Z,33
2022-10-25T14:40:19.251Z,38
2022-10-25T14:41:24.319Z,37
2022-10-25T14:42:33.500Z,40
2022-10-25T14:43:38.250Z,38
2022-10-25T14:44:42.932Z,43
2022-10-25T14:45:47.583Z,47
2022-10-25T14:46:59.667Z,47
2022-10-25T14:48:03.711Z,52
2022-10-25T14:49:10.899Z,52
2022-10-25T14:50:15.077Z,52
2022-10-25T14:51:19.162Z,47
2022-10-25T14:52:26.464Z,45
2022-10-25T14:53:30.982Z,58
2022-10-25T14:54:36.255Z,52
2022-10-25T14:55:40.719Z,52
2022-10-25T14:56:50.355Z,56
2022-10-25T14:57:59.387Z,60
2022-10-25T14:59:03.643Z,56
2022-10-25T15:00:08.352Z,55
2022-10-25T15:01:18.605Z,57
2022-10-25T15:02:22.542Z,63
2022-10-25T15:03:30.355Z,69
2022-10-25T15:04:34.866Z,61
2022-10-25T15:05:40.319Z,60
2022-10-25T15:06:44.658Z,63
2022-10-25T15:07:49.206Z,63
2022-10-25T15:09:10.357Z,62
2022-10-25T15:10:00.682Z,80
2022-10-25T15:11:08.031Z,74
2022-10-25T15:12:10.740Z,75
2022-10-25T15:13:14.847Z,76
2022-10-25T15:14:26.607Z,82
2022-10-25T15:15:31.035Z,83
2022-10-25T15:16:40.393Z,94
2022-10-25T15:17:44.481Z,112
2022-10-25T15:18:51.615Z,111
2022-10-25T15:20:03.910Z,108
2022-10-25T15:21:13.567Z,110
2022-10-25T15:22:17.633Z,110
2022-10-25T15:23:21.722Z,116
2022-10-25T15:24:25.815Z,111
2022-10-25T15:25:31.310Z,112
2022-10-25T15:26:36.868Z,116
2022-10-25T15:27:39.750Z,115
2022-10-25T15:28:44.307Z,121
2022-10-25T15:30:56.275Z,121
2022-10-25T15:32:00.706Z,116
2022-10-25T15:33:05.163Z,121
2022-10-25T15:34:11.871Z,113
2022-10-25T15:35:16.171Z,122
2022-10-25T15:36:22.235Z,113
2022-10-25T15:37:26.858Z,111
2022-10-25T15:38:42.320Z,112
2022-10-25T15:39:35.913Z,122
2022-10-25T15:40:40.037Z,119
2022-10-25T15:41:50.350Z,119
2022-10-25T15:42:54.819Z,120
2022-10-25T15:43:58.886Z,113
2022-10-25T15:45:02.954Z,115
2022-10-25T15:46:09.267Z,119
2022-10-25T15:47:27.335Z,112
2022-10-25T15:48:34.595Z,118
2022-10-25T15:49:38.717Z,117
2022-10-25T15:50:42.847Z,117
2022-10-25T15:51:52.763Z,116
2022-10-25T15:53:08.363Z,126
2022-10-25T15:54:12.860Z,122
2022-10-25T15:55:17.095Z,119
2022-10-25T15:56:24.191Z,119
2022-10-25T15:57:28.485Z,122
2022-10-25T15:58:35.387Z,117
2022-10-25T15:59:39.542Z,124
2022-10-25T16:00:46.377Z,118
2022-10-25T16:01:51.022Z,127
2022-10-25T16:02:55.475Z,124
2022-10-25T16:04:05.372Z,119
2022-10-25T16:05:09.691Z,119
2022-10-25T16:08:14.918Z,119
2022-10-25T16:09:51.051Z,115
2022-10-25T16:10:55.272Z,118
2022-10-25T16:11:59.810Z,117
2022-10-25T16:13:10.155Z,120
2022-10-25T16:14:17.813Z,116
2022-10-25T16:15:27.510Z,115
2022-10-25T16:16:40.564Z,116
2022-10-25T16:17:36.748Z,116
2022-10-25T16:18:59.781Z,112
2022-10-25T16:20:01.784Z,119
2022-10-25T16:21:19.423Z,116
2022-10-25T16:22:23.486Z,119
2022-10-25T16:23:27.601Z,115
2022-10-25T16:24:33.335Z,122
2022-10-25T16:25:37.970Z,116
2022-10-25T16:26:53.335Z,117
2022-10-25T16:27:57.751Z,114
2022-10-25T16:29:02.096Z,112
2022-10-25T16:30:11.452Z,113
2022-10-25T16:31:18.698Z,114
2022-10-25T16:32:33.319Z,109
2022-10-25T16:33:37.611Z,114
2022-10-25T16:34:41.684Z,115
2022-10-25T16:36:28.822Z,118
2022-10-25T16:37:42.043Z,113
2022-10-25T16:38:46.815Z,114
2022-10-25T16:39:51.159Z,115
2022-10-25T16:40:55.546Z,111
2022-10-25T16:42:03.267Z,112
2022-10-25T16:43:08.499Z,115
2022-10-25T16:44:13.192Z,122
2022-10-25T16:45:17.726Z,118
2022-10-25T16:46:25.671Z,119
2022-10-25T16:47:54.246Z,116
2022-10-25T16:49:33.206Z,117
2022-10-25T16:50:37.628Z,114
2022-10-25T16:51:41.854Z,115
2022-10-25T16:52:46.569Z,119
2022-10-25T16:55:53.427Z,116
2022-10-25T16:56:57.699Z,118
2022-10-25T16:58:02.187Z,126
2022-10-25T16:59:06.815Z,122
2022-10-25T17:00:11.267Z,111
2022-10-25T17:01:18.553Z,111
2022-10-25T17:02:22.773Z,119
2022-10-25T17:03:26.918Z,122
2022-10-25T17:04:31.438Z,122
2022-10-25T17:05:39.412Z,121
2022-10-25T17:06:43.683Z,113
2022-10-25T17:07:48.274Z,111
2022-10-25T17:08:52.802Z,114
2022-10-25T17:09:56.994Z,120
2022-10-25T17:11:31.614Z,121
2022-10-25T17:12:37.306Z,113
2022-10-25T17:13:46.874Z,122
2022-10-25T17:14:51.094Z,116
2022-10-25T17:15:55.647Z,116
2022-10-25T17:17:02.268Z,119
2022-10-25T17:19:06.911Z,119
2022-10-25T17:20:47.056Z,114
2022-10-25T17:21:51.337Z,118
2022-10-25T17:22:56.309Z,117
2022-10-25T17:24:01.049Z,113
2022-10-25T17:25:05.504Z,120
2022-10-25T17:26:16.485Z,123
2022-10-25T17:27:20.909Z,126
2022-10-25T17:28:34.230Z,121
2022-10-25T17:29:38.996Z,116
2022-10-25T17:30:43.493Z,108
2022-10-25T17:31:52.618Z,111
2022-10-25T17:32:57.177Z,114
2022-10-25T17:34:10.129Z,119
2022-10-25T17:35:14.771Z,120
2022-10-25T17:36:19.150Z,121
2022-10-25T17:38:26.041Z,121
2022-10-25T17:40:21.621Z,121
2022-10-25T17:41:25.858Z,117
2022-10-25T17:42:29.945Z,121